Roswell, NM (88201)

4:22 PM MST on February 11, 2016 (GMT -0700)
Villa Park | | Change Station
CLOSE
Current Station
Personal Weather Station
Location: Roswell, NM
Elevation: 3596 ft
Nearby Weather Stations

Elev 3596 ft 33.42 °N, 104.52 °W | Updated 9 minutes ago

Clear
Clear
71.6 °F
Feels Like 73 °F
N
2.7
Wind Variable Wind from ESE

Today
High -- | Low -- °F
--% Chance of Precip.
Yesterday
High -- | Low -- °F
Precip. -- in
Pressure 30.06 in
Visibility 10.0 miles
Clouds Clear
Heat Index 73 °F
Dew Point 18 °F
Humidity 13%
Rainfall 0.00 in
Snow Depth Not available.
6:46 AM 5:38 PM
Waxing Crescent, 15% visible
METAR KROW 112251Z AUTO 13005KT 10SM CLR 22/M09 A3014 RMK AO2 SLP178 T02171094
Pressure 30.06 in
Visibility 10.0 miles
Clouds Clear
Heat Index 73 °F
Dew Point 18 °F
Humidity 13%
Rainfall 0.00 in
Snow Depth Not available.
6:46 AM 5:38 PM
Waxing Crescent, 15% visible
METAR KROW 112251Z AUTO 13005KT 10SM CLR 22/M09 A3014 RMK AO2 SLP178 T02171094

10-Day Weather Forecast

Almanac

Astronomy

Feb. 11, 2016 Rise Set
Actual Time
Civil Twilight
Nautical Twilight
Astronomical Twilight
Moon
Length of Visible Light
Length of Day
Tomorrow will be .
, % of the Moon is Illuminated

Today's Extremes

State Highs State Lows

Community

WunderPhotos

Upload Photos

1,892,180 photos uploaded!

WunderBlog® & News

Nearby

Air Quality

  Air Quality AQ Index Pollutant
Not available.

Snow Depth

Station Depth Elevation

Earthquake Activity

City Distance Mag. Time & Date
Minimum magnitude displayed is 2.5.

Coastal Water Temperatures

Place Temperature

Stations

Nearby Weather Stations

Station Location Temp. Windchill Dew Point Humidity Wind Precip. Elev Updated Type
                   

Watches & Warnings

There are currently no watches in effect.